sensor_id;sensor_type;location;lat;lon;timestamp;temperature;humidity
5286;DHT22;2665;53.112;7.358;2022-11-20T00:01:42;0.20;1.00
5286;DHT22;2665;53.112;7.358;2022-11-20T00:04:10;0.20;1.00
5286;DHT22;2665;53.112;7.358;2022-11-20T00:06:35;0.30;1.00
5286;DHT22;2665;53.112;7.358;2022-11-20T00:09:01;0.30;1.00
5286;DHT22;2665;53.112;7.358;2022-11-20T00:11:28;0.30;1.00
5286;DHT22;2665;53.112;7.358;2022-11-20T00:13:56;0.20;1.00
5286;DHT22;2665;53.112;7.358;2022-11-20T00:16:24;0.20;1.00
5286;DHT22;2665;53.112;7.358;2022-11-20T00:18:50;0.20;1.00
5286;DHT22;2665;53.112;7.358;2022-11-20T00:21:18;0.10;1.00
5286;DHT22;2665;53.112;7.358;2022-11-20T00:23:44;0.10;1.00
5286;DHT22;2665;53.112;7.358;2022-11-20T00:26:12;0.10;1.00
5286;DHT22;2665;53.112;7.358;2022-11-20T00:28:38;0.10;1.00
5286;DHT22;2665;53.112;7.358;2022-11-20T00:31:07;0.10;1.00
5286;DHT22;2665;53.112;7.358;2022-11-20T00:33:33;0.10;1.00
5286;DHT22;2665;53.112;7.358;2022-11-20T00:36:06;0.10;1.00
5286;DHT22;2665;53.112;7.358;2022-11-20T00:38:33;0.10;1.00
5286;DHT22;2665;53.112;7.358;2022-11-20T00:41:03;0.10;1.00
5286;DHT22;2665;53.112;7.358;2022-11-20T00:43:29;0.10;1.00
5286;DHT22;2665;53.112;7.358;2022-11-20T00:46:02;0.10;1.00
5286;DHT22;2665;53.112;7.358;2022-11-20T00:48:28;0.20;1.00
5286;DHT22;2665;53.112;7.358;2022-11-20T00:50:54;0.30;1.00
5286;DHT22;2665;53.112;7.358;2022-11-20T00:53:20;0.30;1.00
5286;DHT22;2665;53.112;7.358;2022-11-20T00:56:00;0.30;1.00
5286;DHT22;2665;53.112;7.358;2022-11-20T00:58:31;0.30;1.00
5286;DHT22;2665;53.112;7.358;2022-11-20T01:01:02;0.30;1.00
5286;DHT22;2665;53.112;7.358;2022-11-20T01:03:27;0.30;1.00
5286;DHT22;2665;53.112;7.358;2022-11-20T01:05:53;0.40;1.00
5286;DHT22;2665;53.112;7.358;2022-11-20T01:08:18;0.40;1.00
5286;DHT22;2665;53.112;7.358;2022-11-20T01:10:44;0.40;1.00
5286;DHT22;2665;53.112;7.358;2022-11-20T01:13:10;0.50;1.00
5286;DHT22;2665;53.112;7.358;2022-11-20T01:15:54;0.50;1.00
5286;DHT22;2665;53.112;7.358;2022-11-20T01:18:19;0.50;1.00
5286;DHT22;2665;53.112;7.358;2022-11-20T01:20:45;0.50;1.00
5286;DHT22;2665;53.112;7.358;2022-11-20T01:23:10;0.50;1.00
5286;DHT22;2665;53.112;7.358;2022-11-20T01:25:36;0.50;1.00
5286;DHT22;2665;53.112;7.358;2022-11-20T01:28:02;0.50;1.00
5286;DHT22;2665;53.112;7.358;2022-11-20T01:30:28;0.50;1.00
5286;DHT22;2665;53.112;7.358;2022-11-20T01:32:55;0.50;1.00
5286;DHT22;2665;53.112;7.358;2022-11-20T01:35:20;0.50;1.00
5286;DHT22;2665;53.112;7.358;2022-11-20T01:37:46;0.40;1.00
5286;DHT22;2665;53.112;7.358;2022-11-20T01:40:12;0.50;1.00
5286;DHT22;2665;53.112;7.358;2022-11-20T01:42:37;0.50;12.60
5286;DHT22;2665;53.112;7.358;2022-11-20T01:48:16;0.40;1.00
5286;DHT22;2665;53.112;7.358;2022-11-20T01:50:43;0.40;28.60
5286;DHT22;2665;53.112;7.358;2022-11-20T01:53:13;0.40;47.30
5286;DHT22;2665;53.112;7.358;2022-11-20T01:55:46;0.40;44.90
5286;DHT22;2665;53.112;7.358;2022-11-20T01:58:15;0.40;39.90
5286;DHT22;2665;53.112;7.358;2022-11-20T02:00:41;0.40;44.60
5286;DHT22;2665;53.112;7.358;2022-11-20T02:03:09;0.40;45.40
5286;DHT22;2665;53.112;7.358;2022-11-20T02:05:44;0.40;92.40
5286;DHT22;2665;53.112;7.358;2022-11-20T02:08:12;0.40;46.50
5286;DHT22;2665;53.112;7.358;2022-11-20T02:10:38;0.40;87.20
5286;DHT22;2665;53.112;7.358;2022-11-20T02:13:04;0.50;77.10
5286;DHT22;2665;53.112;7.358;2022-11-20T02:15:49;0.50;99.20
5286;DHT22;2665;53.112;7.358;2022-11-20T02:18:17;0.50;25.30
5286;DHT22;2665;53.112;7.358;2022-11-20T02:20:46;0.50;66.50
5286;DHT22;2665;53.112;7.358;2022-11-20T02:25:57;0.50;72.00
5286;DHT22;2665;53.112;7.358;2022-11-20T02:28:25;0.50;94.20
5286;DHT22;2665;53.112;7.358;2022-11-20T02:30:50;0.50;99.60
5286;DHT22;2665;53.112;7.358;2022-11-20T02:33:16;0.50;61.10
5286;DHT22;2665;53.112;7.358;2022-11-20T02:35:45;0.50;90.70
5286;DHT22;2665;53.112;7.358;2022-11-20T02:38:11;0.50;96.10
5286;DHT22;2665;53.112;7.358;2022-11-20T02:40:38;0.50;99.90
5286;DHT22;2665;53.112;7.358;2022-11-20T02:43:03;0.50;99.90
5286;DHT22;2665;53.112;7.358;2022-11-20T02:45:29;0.40;99.90
5286;DHT22;2665;53.112;7.358;2022-11-20T02:47:55;0.50;99.90
5286;DHT22;2665;53.112;7.358;2022-11-20T02:50:21;0.40;99.90
5286;DHT22;2665;53.112;7.358;2022-11-20T02:52:46;0.50;1.00
5286;DHT22;2665;53.112;7.358;2022-11-20T02:55:12;0.50;1.00
5286;DHT22;2665;53.112;7.358;2022-11-20T02:57:38;0.40;1.00
5286;DHT22;2665;53.112;7.358;2022-11-20T03:00:04;0.50;1.00
5286;DHT22;2665;53.112;7.358;2022-11-20T03:02:30;0.40;1.00
5286;DHT22;2665;53.112;7.358;2022-11-20T03:04:56;0.40;1.00
5286;DHT22;2665;53.112;7.358;2022-11-20T03:07:22;0.40;1.00
5286;DHT22;2665;53.112;7.358;2022-11-20T03:09:47;0.40;1.00
5286;DHT22;2665;53.112;7.358;2022-11-20T03:12:13;0.40;1.00
5286;DHT22;2665;53.112;7.358;2022-11-20T03:14:39;0.40;1.00
5286;DHT22;2665;53.112;7.358;2022-11-20T03:17:04;0.40;1.00
5286;DHT22;2665;53.112;7.358;2022-11-20T03:19:30;0.50;1.00
5286;DHT22;2665;53.112;7.358;2022-11-20T03:21:55;0.50;1.00
5286;DHT22;2665;53.112;7.358;2022-11-20T03:24:21;0.50;1.00
5286;DHT22;2665;53.112;7.358;2022-11-20T03:26:46;0.50;99.90
5286;DHT22;2665;53.112;7.358;2022-11-20T03:29:12;0.50;99.90
5286;DHT22;2665;53.112;7.358;2022-11-20T03:31:39;0.50;99.90
5286;DHT22;2665;53.112;7.358;2022-11-20T03:34:10;0.50;99.90
5286;DHT22;2665;53.112;7.358;2022-11-20T03:36:41;0.50;99.90
5286;DHT22;2665;53.112;7.358;2022-11-20T03:39:08;0.50;99.90
5286;DHT22;2665;53.112;7.358;2022-11-20T03:41:38;0.50;99.90
5286;DHT22;2665;53.112;7.358;2022-11-20T03:44:06;0.60;99.90
5286;DHT22;2665;53.112;7.358;2022-11-20T03:46:32;0.60;99.90
5286;DHT22;2665;53.112;7.358;2022-11-20T03:48:58;0.60;99.90
5286;DHT22;2665;53.112;7.358;2022-11-20T03:51:28;0.60;99.90
5286;DHT22;2665;53.112;7.358;2022-11-20T03:53:57;0.60;99.90
5286;DHT22;2665;53.112;7.358;2022-11-20T03:56:27;0.50;99.90
5286;DHT22;2665;53.112;7.358;2022-11-20T03:58:53;0.50;99.90
5286;DHT22;2665;53.112;7.358;2022-11-20T04:01:21;0.50;99.90
5286;DHT22;2665;53.112;7.358;2022-11-20T04:03:48;0.60;99.90
5286;DHT22;2665;53.112;7.358;2022-11-20T04:06:19;0.60;99.90
5286;DHT22;2665;53.112;7.358;2022-11-20T04:08:45;0.60;99.90
5286;DHT22;2665;53.112;7.358;2022-11-20T04:11:19;0.60;99.90
5286;DHT22;2665;53.112;7.358;2022-11-20T04:13:47;0.50;99.90
5286;DHT22;2665;53.112;7.358;2022-11-20T04:16:13;0.50;99.90
5286;DHT22;2665;53.112;7.358;2022-11-20T04:18:39;0.50;99.90
5286;DHT22;2665;53.112;7.358;2022-11-20T04:21:05;0.40;99.90
5286;DHT22;2665;53.112;7.358;2022-11-20T04:23:31;0.40;99.90
5286;DHT22;2665;53.112;7.358;2022-11-20T04:26:07;0.50;99.90
5286;DHT22;2665;53.112;7.358;2022-11-20T04:28:33;0.40;99.90
5286;DHT22;2665;53.112;7.358;2022-11-20T04:31:14;0.40;99.90
5286;DHT22;2665;53.112;7.358;2022-11-20T04:33:40;0.30;99.90
5286;DHT22;2665;53.112;7.358;2022-11-20T04:36:12;0.40;99.90
5286;DHT22;2665;53.112;7.358;2022-11-20T04:38:38;0.40;99.90
5286;DHT22;2665;53.112;7.358;2022-11-20T04:41:06;0.30;99.90
5286;DHT22;2665;53.112;7.358;2022-11-20T04:43:32;0.40;99.90
5286;DHT22;2665;53.112;7.358;2022-11-20T04:45:59;0.40;99.90
5286;DHT22;2665;53.112;7.358;2022-11-20T04:48:26;0.40;99.90
5286;DHT22;2665;53.112;7.358;2022-11-20T04:50:52;0.40;99.90
5286;DHT22;2665;53.112;7.358;2022-11-20T04:53:19;0.40;99.90
5286;DHT22;2665;53.112;7.358;2022-11-20T04:55:45;0.40;99.90
5286;DHT22;2665;53.112;7.358;2022-11-20T04:58:11;0.40;99.90
5286;DHT22;2665;53.112;7.358;2022-11-20T05:00:37;0.40;99.90
5286;DHT22;2665;53.112;7.358;2022-11-20T05:03:02;0.40;99.90
5286;DHT22;2665;53.112;7.358;2022-11-20T05:05:28;0.30;99.90
5286;DHT22;2665;53.112;7.358;2022-11-20T05:07:56;0.30;99.90
5286;DHT22;2665;53.112;7.358;2022-11-20T05:10:23;0.40;99.90
5286;DHT22;2665;53.112;7.358;2022-11-20T05:12:49;0.30;99.90
5286;DHT22;2665;53.112;7.358;2022-11-20T05:15:14;0.30;99.90
5286;DHT22;2665;53.112;7.358;2022-11-20T05:17:40;0.40;99.90
5286;DHT22;2665;53.112;7.358;2022-11-20T05:20:06;0.40;99.90
5286;DHT22;2665;53.112;7.358;2022-11-20T05:22:32;0.40;99.90
5286;DHT22;2665;53.112;7.358;2022-11-20T05:24:57;0.30;99.90
5286;DHT22;2665;53.112;7.358;2022-11-20T05:27:23;0.30;99.90
5286;DHT22;2665;53.112;7.358;2022-11-20T05:29:48;0.40;99.90
5286;DHT22;2665;53.112;7.358;2022-11-20T05:32:14;0.40;99.90
5286;DHT22;2665;53.112;7.358;2022-11-20T05:34:39;0.40;99.90
5286;DHT22;2665;53.112;7.358;2022-11-20T05:37:05;0.30;99.90
5286;DHT22;2665;53.112;7.358;2022-11-20T05:39:31;0.30;99.90
5286;DHT22;2665;53.112;7.358;2022-11-20T05:41:56;0.30;99.90
5286;DHT22;2665;53.112;7.358;2022-11-20T05:44:40;0.40;99.90
5286;DHT22;2665;53.112;7.358;2022-11-20T05:47:06;0.40;99.90
5286;DHT22;2665;53.112;7.358;2022-11-20T05:49:32;0.40;99.90
5286;DHT22;2665;53.112;7.358;2022-11-20T05:51:57;0.40;99.90
5286;DHT22;2665;53.112;7.358;2022-11-20T05:54:23;0.40;99.90
5286;DHT22;2665;53.112;7.358;2022-11-20T05:56:49;0.40;99.90
5286;DHT22;2665;53.112;7.358;2022-11-20T05:59:15;0.30;99.90
5286;DHT22;2665;53.112;7.358;2022-11-20T06:01:40;0.40;99.90
5286;DHT22;2665;53.112;7.358;2022-11-20T06:04:06;0.40;99.90
5286;DHT22;2665;53.112;7.358;2022-11-20T06:06:31;0.40;99.90
5286;DHT22;2665;53.112;7.358;2022-11-20T06:08:57;0.40;99.90
5286;DHT22;2665;53.112;7.358;2022-11-20T06:11:24;0.40;99.90
5286;DHT22;2665;53.112;7.358;2022-11-20T06:13:50;0.40;99.90
5286;DHT22;2665;53.112;7.358;2022-11-20T06:16:18;0.40;99.90
5286;DHT22;2665;53.112;7.358;2022-11-20T06:18:45;0.40;99.90
5286;DHT22;2665;53.112;7.358;2022-11-20T06:21:13;0.40;99.90
5286;DHT22;2665;53.112;7.358;2022-11-20T06:23:39;0.40;99.90
5286;DHT22;2665;53.112;7.358;2022-11-20T06:26:08;0.40;99.90
5286;DHT22;2665;53.112;7.358;2022-11-20T06:28:34;0.40;99.90
5286;DHT22;2665;53.112;7.358;2022-11-20T06:31:00;0.40;99.90
5286;DHT22;2665;53.112;7.358;2022-11-20T06:33:26;0.40;99.90
5286;DHT22;2665;53.112;7.358;2022-11-20T06:35:51;0.40;99.90
5286;DHT22;2665;53.112;7.358;2022-11-20T06:38:17;0.40;99.90
5286;DHT22;2665;53.112;7.358;2022-11-20T06:40:43;0.40;99.90
5286;DHT22;2665;53.112;7.358;2022-11-20T06:43:11;0.40;99.90
5286;DHT22;2665;53.112;7.358;2022-11-20T06:45:37;0.40;1.00
5286;DHT22;2665;53.112;7.358;2022-11-20T06:48:03;0.40;1.00
5286;DHT22;2665;53.112;7.358;2022-11-20T06:50:29;0.40;1.00
5286;DHT22;2665;53.112;7.358;2022-11-20T06:52:55;0.40;1.00
5286;DHT22;2665;53.112;7.358;2022-11-20T06:55:20;0.40;1.00
5286;DHT22;2665;53.112;7.358;2022-11-20T06:57:46;0.30;1.00
5286;DHT22;2665;53.112;7.358;2022-11-20T07:00:12;0.30;1.00
5286;DHT22;2665;53.112;7.358;2022-11-20T07:02:37;0.30;1.00
5286;DHT22;2665;53.112;7.358;2022-11-20T07:05:03;0.30;1.00
5286;DHT22;2665;53.112;7.358;2022-11-20T07:07:29;0.30;19.90
5286;DHT22;2665;53.112;7.358;2022-11-20T07:09:54;0.30;1.00
5286;DHT22;2665;53.112;7.358;2022-11-20T07:12:20;0.30;1.00
5286;DHT22;2665;53.112;7.358;2022-11-20T07:14:46;0.30;17.10
5286;DHT22;2665;53.112;7.358;2022-11-20T07:17:11;0.30;99.90
5286;DHT22;2665;53.112;7.358;2022-11-20T07:19:37;0.30;99.90
5286;DHT22;2665;53.112;7.358;2022-11-20T07:22:03;0.30;99.90
5286;DHT22;2665;53.112;7.358;2022-11-20T07:24:28;0.30;99.90
5286;DHT22;2665;53.112;7.358;2022-11-20T07:26:54;0.40;99.90
5286;DHT22;2665;53.112;7.358;2022-11-20T07:29:19;0.40;99.90
5286;DHT22;2665;53.112;7.358;2022-11-20T07:31:45;0.40;76.00
5286;DHT22;2665;53.112;7.358;2022-11-20T07:34:10;0.40;19.80
5286;DHT22;2665;53.112;7.358;2022-11-20T07:36:36;0.40;7.10
5286;DHT22;2665;53.112;7.358;2022-11-20T07:39:02;0.40;1.00
5286;DHT22;2665;53.112;7.358;2022-11-20T07:41:27;0.40;1.00
5286;DHT22;2665;53.112;7.358;2022-11-20T07:43:54;0.40;1.00
5286;DHT22;2665;53.112;7.358;2022-11-20T07:46:19;0.40;1.00
5286;DHT22;2665;53.112;7.358;2022-11-20T07:48:45;0.40;1.00
5286;DHT22;2665;53.112;7.358;2022-11-20T07:51:11;0.50;1.00
5286;DHT22;2665;53.112;7.358;2022-11-20T07:53:36;0.50;1.00
5286;DHT22;2665;53.112;7.358;2022-11-20T07:56:03;0.50;1.00
5286;DHT22;2665;53.112;7.358;2022-11-20T07:58:29;0.50;1.00
5286;DHT22;2665;53.112;7.358;2022-11-20T08:00:55;0.50;1.00
5286;DHT22;2665;53.112;7.358;2022-11-20T08:03:21;0.50;99.90
5286;DHT22;2665;53.112;7.358;2022-11-20T08:05:48;0.60;99.90
5286;DHT22;2665;53.112;7.358;2022-11-20T08:08:13;0.60;99.90
5286;DHT22;2665;53.112;7.358;2022-11-20T08:10:39;0.60;99.90
5286;DHT22;2665;53.112;7.358;2022-11-20T08:13:04;0.60;99.90
5286;DHT22;2665;53.112;7.358;2022-11-20T08:15:50;0.60;99.90
5286;DHT22;2665;53.112;7.358;2022-11-20T08:18:18;0.70;99.90
5286;DHT22;2665;53.112;7.358;2022-11-20T08:20:44;0.70;99.90
5286;DHT22;2665;53.112;7.358;2022-11-20T08:23:11;0.80;45.80
5286;DHT22;2665;53.112;7.358;2022-11-20T08:25:37;0.80;1.00
5286;DHT22;2665;53.112;7.358;2022-11-20T08:28:05;0.80;21.70
5286;DHT22;2665;53.112;7.358;2022-11-20T08:30:31;0.80;10.70
5286;DHT22;2665;53.112;7.358;2022-11-20T08:33:05;0.80;1.00
5286;DHT22;2665;53.112;7.358;2022-11-20T08:35:38;0.80;1.00
5286;DHT22;2665;53.112;7.358;2022-11-20T08:38:05;0.80;1.00
5286;DHT22;2665;53.112;7.358;2022-11-20T08:40:31;0.80;1.00
5286;DHT22;2665;53.112;7.358;2022-11-20T08:42:57;0.80;1.00
5286;DHT22;2665;53.112;7.358;2022-11-20T08:45:23;0.80;1.00
5286;DHT22;2665;53.112;7.358;2022-11-20T08:47:49;0.80;1.00
5286;DHT22;2665;53.112;7.358;2022-11-20T08:50:15;0.80;1.00
5286;DHT22;2665;53.112;7.358;2022-11-20T08:52:41;0.80;1.00
5286;DHT22;2665;53.112;7.358;2022-11-20T08:55:08;0.80;1.00
5286;DHT22;2665;53.112;7.358;2022-11-20T08:57:35;0.80;1.00
5286;DHT22;2665;53.112;7.358;2022-11-20T09:00:04;0.80;1.00
5286;DHT22;2665;53.112;7.358;2022-11-20T09:02:29;0.90;1.00
5286;DHT22;2665;53.112;7.358;2022-11-20T09:04:55;0.90;1.00
5286;DHT22;2665;53.112;7.358;2022-11-20T09:07:21;0.80;1.00
5286;DHT22;2665;53.112;7.358;2022-11-20T09:09:46;0.80;1.00
5286;DHT22;2665;53.112;7.358;2022-11-20T09:12:13;0.90;1.00
5286;DHT22;2665;53.112;7.358;2022-11-20T09:14:39;0.90;1.00
5286;DHT22;2665;53.112;7.358;2022-11-20T09:17:04;0.90;1.00
5286;DHT22;2665;53.112;7.358;2022-11-20T09:19:30;0.90;1.00
5286;DHT22;2665;53.112;7.358;2022-11-20T09:21:55;0.90;1.00
5286;DHT22;2665;53.112;7.358;2022-11-20T09:24:21;0.90;1.00
5286;DHT22;2665;53.112;7.358;2022-11-20T09:26:47;0.90;1.00
5286;DHT22;2665;53.112;7.358;2022-11-20T09:29:12;0.90;1.00
5286;DHT22;2665;53.112;7.358;2022-11-20T09:31:38;0.90;1.00
5286;DHT22;2665;53.112;7.358;2022-11-20T09:34:03;0.90;1.00
5286;DHT22;2665;53.112;7.358;2022-11-20T09:36:29;0.90;1.00
5286;DHT22;2665;53.112;7.358;2022-11-20T09:38:54;0.90;1.00
5286;DHT22;2665;53.112;7.358;2022-11-20T09:47:02;1.00;1.00
5286;DHT22;2665;53.112;7.358;2022-11-20T09:50:02;1.00;99.90
5286;DHT22;2665;53.112;7.358;2022-11-20T09:55:23;1.10;99.90
5286;DHT22;2665;53.112;7.358;2022-11-20T09:57:51;1.10;99.90
5286;DHT22;2665;53.112;7.358;2022-11-20T10:00:17;1.10;99.90
5286;DHT22;2665;53.112;7.358;2022-11-20T10:02:57;1.20;99.90
5286;DHT22;2665;53.112;7.358;2022-11-20T10:05:31;1.20;99.90
5286;DHT22;2665;53.112;7.358;2022-11-20T10:10:42;1.20;99.90
5286;DHT22;2665;53.112;7.358;2022-11-20T10:16:09;1.20;99.90
5286;DHT22;2665;53.112;7.358;2022-11-20T10:29:32;1.30;99.90
5286;DHT22;2665;53.112;7.358;2022-11-20T10:32:10;1.30;99.90
5286;DHT22;2665;53.112;7.358;2022-11-20T10:34:54;1.30;99.90
5286;DHT22;2665;53.112;7.358;2022-11-20T10:37:26;1.30;99.90
5286;DHT22;2665;53.112;7.358;2022-11-20T10:40:22;1.40;99.90
5286;DHT22;2665;53.112;7.358;2022-11-20T10:43:02;1.40;99.90
5286;DHT22;2665;53.112;7.358;2022-11-20T10:48:23;1.50;99.90
5286;DHT22;2665;53.112;7.358;2022-11-20T10:53:49;1.50;99.90
5286;DHT22;2665;53.112;7.358;2022-11-20T10:56:22;1.50;99.90
5286;DHT22;2665;53.112;7.358;2022-11-20T10:59:20;1.60;99.90
5286;DHT22;2665;53.112;7.358;2022-11-20T11:01:51;1.70;99.90
5286;DHT22;2665;53.112;7.358;2022-11-20T11:04:40;1.80;99.90
5286;DHT22;2665;53.112;7.358;2022-11-20T11:07:26;1.90;99.90
5286;DHT22;2665;53.112;7.358;2022-11-20T11:09:54;2.00;99.90
5286;DHT22;2665;53.112;7.358;2022-11-20T11:12:29;2.10;99.90
5286;DHT22;2665;53.112;7.358;2022-11-20T11:14:56;2.10;99.90
5286;DHT22;2665;53.112;7.358;2022-11-20T11:22:33;2.20;99.90
5286;DHT22;2665;53.112;7.358;2022-11-20T11:24:59;2.20;99.90
5286;DHT22;2665;53.112;7.358;2022-11-20T11:27:25;2.30;99.90
5286;DHT22;2665;53.112;7.358;2022-11-20T11:30:02;2.30;99.90
5286;DHT22;2665;53.112;7.358;2022-11-20T11:32:29;2.40;99.90
5286;DHT22;2665;53.112;7.358;2022-11-20T11:35:04;2.40;99.90
5286;DHT22;2665;53.112;7.358;2022-11-20T11:37:35;2.40;99.90
5286;DHT22;2665;53.112;7.358;2022-11-20T11:40:02;2.40;99.90
5286;DHT22;2665;53.112;7.358;2022-11-20T11:42:30;2.40;99.90
5286;DHT22;2665;53.112;7.358;2022-11-20T11:44:58;2.40;99.90
5286;DHT22;2665;53.112;7.358;2022-11-20T11:47:31;2.40;99.90
5286;DHT22;2665;53.112;7.358;2022-11-20T12:01:04;2.70;92.00
5286;DHT22;2665;53.112;7.358;2022-11-20T12:03:38;2.70;91.70
5286;DHT22;2665;53.112;7.358;2022-11-20T12:06:16;2.60;84.20
5286;DHT22;2665;53.112;7.358;2022-11-20T12:09:08;2.70;85.80
5286;DHT22;2665;53.112;7.358;2022-11-20T12:11:43;2.70;85.00
5286;DHT22;2665;53.112;7.358;2022-11-20T12:14:34;2.70;83.90
5286;DHT22;2665;53.112;7.358;2022-11-20T12:17:02;2.80;78.00
5286;DHT22;2665;53.112;7.358;2022-11-20T12:19:30;2.80;69.80
5286;DHT22;2665;53.112;7.358;2022-11-20T12:30:18;3.10;59.30
5286;DHT22;2665;53.112;7.358;2022-11-20T12:41:27;3.60;53.50
5286;DHT22;2665;53.112;7.358;2022-11-20T12:53:08;3.90;43.90
5286;DHT22;2665;53.112;7.358;2022-11-20T13:01:00;4.70;44.30
5286;DHT22;2665;53.112;7.358;2022-11-20T13:03:47;5.70;36.20
5286;DHT22;2665;53.112;7.358;2022-11-20T13:06:18;5.70;25.00
5286;DHT22;2665;53.112;7.358;2022-11-20T13:08:56;5.60;21.20
5286;DHT22;2665;53.112;7.358;2022-11-20T16:31:19;1.00;35.30
5286;DHT22;2665;53.112;7.358;2022-11-20T16:33:52;1.00;49.00
5286;DHT22;2665;53.112;7.358;2022-11-20T16:36:20;0.90;50.70
5286;DHT22;2665;53.112;7.358;2022-11-20T16:38:46;0.90;50.90
5286;DHT22;2665;53.112;7.358;2022-11-20T16:41:16;0.90;52.30
5286;DHT22;2665;53.112;7.358;2022-11-20T16:43:47;0.80;55.10
5286;DHT22;2665;53.112;7.358;2022-11-20T16:46:17;0.80;56.20
5286;DHT22;2665;53.112;7.358;2022-11-20T16:48:44;0.90;58.00
5286;DHT22;2665;53.112;7.358;2022-11-20T16:51:11;0.80;59.20
5286;DHT22;2665;53.112;7.358;2022-11-20T16:53:38;0.80;62.50
5286;DHT22;2665;53.112;7.358;2022-11-20T16:56:14;0.80;64.50
5286;DHT22;2665;53.112;7.358;2022-11-20T16:58:45;0.90;67.40
5286;DHT22;2665;53.112;7.358;2022-11-20T17:01:14;0.90;71.20
5286;DHT22;2665;53.112;7.358;2022-11-20T17:03:41;0.90;71.80
5286;DHT22;2665;53.112;7.358;2022-11-20T17:06:15;0.90;73.00
5286;DHT22;2665;53.112;7.358;2022-11-20T17:08:41;1.00;76.20
5286;DHT22;2665;53.112;7.358;2022-11-20T17:11:09;1.00;75.40
5286;DHT22;2665;53.112;7.358;2022-11-20T17:13:35;1.00;77.20
5286;DHT22;2665;53.112;7.358;2022-11-20T17:16:03;1.00;76.90
5286;DHT22;2665;53.112;7.358;2022-11-20T17:18:30;1.00;77.20
5286;DHT22;2665;53.112;7.358;2022-11-20T17:20:56;1.00;78.00
5286;DHT22;2665;53.112;7.358;2022-11-20T17:23:22;1.00;79.20
5286;DHT22;2665;53.112;7.358;2022-11-20T17:25:47;1.00;78.30
5286;DHT22;2665;53.112;7.358;2022-11-20T17:28:13;1.00;79.20
5286;DHT22;2665;53.112;7.358;2022-11-20T17:30:38;1.00;81.60
5286;DHT22;2665;53.112;7.358;2022-11-20T17:33:04;1.00;81.00
5286;DHT22;2665;53.112;7.358;2022-11-20T17:35:30;1.10;82.00
5286;DHT22;2665;53.112;7.358;2022-11-20T17:37:55;1.10;82.00
5286;DHT22;2665;53.112;7.358;2022-11-20T17:40:21;1.10;83.60
5286;DHT22;2665;53.112;7.358;2022-11-20T17:42:46;1.10;82.50
5286;DHT22;2665;53.112;7.358;2022-11-20T17:45:12;1.10;82.60
5286;DHT22;2665;53.112;7.358;2022-11-20T17:47:38;1.10;84.00
5286;DHT22;2665;53.112;7.358;2022-11-20T17:50:03;1.10;83.80
5286;DHT22;2665;53.112;7.358;2022-11-20T17:52:29;1.10;83.40
5286;DHT22;2665;53.112;7.358;2022-11-20T17:54:55;1.10;83.40
5286;DHT22;2665;53.112;7.358;2022-11-20T17:57:22;1.20;84.00
5286;DHT22;2665;53.112;7.358;2022-11-20T18:00:07;1.20;84.40
5286;DHT22;2665;53.112;7.358;2022-11-20T18:02:35;1.20;85.60
5286;DHT22;2665;53.112;7.358;2022-11-20T18:05:01;1.20;84.90
5286;DHT22;2665;53.112;7.358;2022-11-20T18:07:26;1.20;86.30
5286;DHT22;2665;53.112;7.358;2022-11-20T18:09:52;1.20;86.30
5286;DHT22;2665;53.112;7.358;2022-11-20T18:12:18;1.20;86.40
5286;DHT22;2665;53.112;7.358;2022-11-20T18:14:43;1.20;85.40
5286;DHT22;2665;53.112;7.358;2022-11-20T18:17:13;1.20;88.90
5286;DHT22;2665;53.112;7.358;2022-11-20T18:19:44;1.20;88.20
5286;DHT22;2665;53.112;7.358;2022-11-20T18:22:11;1.20;87.80
5286;DHT22;2665;53.112;7.358;2022-11-20T18:24:37;1.10;88.60
5286;DHT22;2665;53.112;7.358;2022-11-20T18:27:05;1.10;89.20
5286;DHT22;2665;53.112;7.358;2022-11-20T18:29:30;1.10;89.80
5286;DHT22;2665;53.112;7.358;2022-11-20T18:31:57;1.10;90.20
5286;DHT22;2665;53.112;7.358;2022-11-20T18:34:23;1.20;91.20
5286;DHT22;2665;53.112;7.358;2022-11-20T18:36:49;1.20;92.20
5286;DHT22;2665;53.112;7.358;2022-11-20T18:39:15;1.10;92.40
5286;DHT22;2665;53.112;7.358;2022-11-20T18:41:41;1.00;92.20
5286;DHT22;2665;53.112;7.358;2022-11-20T18:44:28;1.00;93.10
5286;DHT22;2665;53.112;7.358;2022-11-20T18:47:15;1.00;94.40
5286;DHT22;2665;53.112;7.358;2022-11-20T18:49:46;1.00;95.00
5286;DHT22;2665;53.112;7.358;2022-11-20T18:52:15;1.00;96.80
5286;DHT22;2665;53.112;7.358;2022-11-20T18:54:41;0.90;98.20
5286;DHT22;2665;53.112;7.358;2022-11-20T18:57:07;0.90;99.50
5286;DHT22;2665;53.112;7.358;2022-11-20T18:59:34;0.90;99.90
5286;DHT22;2665;53.112;7.358;2022-11-20T19:02:00;0.80;99.90
5286;DHT22;2665;53.112;7.358;2022-11-20T19:04:26;0.80;99.90
5286;DHT22;2665;53.112;7.358;2022-11-20T19:06:52;0.80;99.90
5286;DHT22;2665;53.112;7.358;2022-11-20T19:09:20;0.80;99.90
5286;DHT22;2665;53.112;7.358;2022-11-20T19:11:47;0.90;99.90
5286;DHT22;2665;53.112;7.358;2022-11-20T19:14:12;0.90;99.90
5286;DHT22;2665;53.112;7.358;2022-11-20T19:16:38;0.90;99.90
5286;DHT22;2665;53.112;7.358;2022-11-20T19:19:05;0.80;99.90
5286;DHT22;2665;53.112;7.358;2022-11-20T19:21:31;0.90;99.90
5286;DHT22;2665;53.112;7.358;2022-11-20T19:23:58;0.80;99.90
5286;DHT22;2665;53.112;7.358;2022-11-20T19:26:24;0.80;99.90
5286;DHT22;2665;53.112;7.358;2022-11-20T19:28:49;0.80;99.90
5286;DHT22;2665;53.112;7.358;2022-11-20T19:31:18;0.80;99.90
5286;DHT22;2665;53.112;7.358;2022-11-20T19:33:44;0.80;99.90
5286;DHT22;2665;53.112;7.358;2022-11-20T19:36:15;0.80;99.90
5286;DHT22;2665;53.112;7.358;2022-11-20T19:38:43;0.80;99.90
5286;DHT22;2665;53.112;7.358;2022-11-20T19:41:09;0.80;99.90
5286;DHT22;2665;53.112;7.358;2022-11-20T19:43:35;0.80;99.90
5286;DHT22;2665;53.112;7.358;2022-11-20T19:46:01;0.80;99.90
5286;DHT22;2665;53.112;7.358;2022-11-20T19:48:35;0.80;99.90
5286;DHT22;2665;53.112;7.358;2022-11-20T19:51:11;0.80;99.90
5286;DHT22;2665;53.112;7.358;2022-11-20T19:53:37;0.80;99.90
5286;DHT22;2665;53.112;7.358;2022-11-20T19:56:04;0.80;99.90
5286;DHT22;2665;53.112;7.358;2022-11-20T19:58:30;0.80;99.90
5286;DHT22;2665;53.112;7.358;2022-11-20T20:00:55;0.80;99.90
5286;DHT22;2665;53.112;7.358;2022-11-20T20:03:21;0.80;99.90
5286;DHT22;2665;53.112;7.358;2022-11-20T20:05:47;0.80;99.90
5286;DHT22;2665;53.112;7.358;2022-11-20T20:08:13;0.80;99.90
5286;DHT22;2665;53.112;7.358;2022-11-20T20:10:39;0.80;99.90
5286;DHT22;2665;53.112;7.358;2022-11-20T20:13:04;0.90;99.90
5286;DHT22;2665;53.112;7.358;2022-11-20T20:15:30;0.90;99.90
5286;DHT22;2665;53.112;7.358;2022-11-20T20:17:56;0.90;99.90
5286;DHT22;2665;53.112;7.358;2022-11-20T20:20:22;0.90;99.90
5286;DHT22;2665;53.112;7.358;2022-11-20T20:22:48;0.90;99.90
5286;DHT22;2665;53.112;7.358;2022-11-20T20:25:14;0.90;99.90
5286;DHT22;2665;53.112;7.358;2022-11-20T20:27:39;0.90;99.90
5286;DHT22;2665;53.112;7.358;2022-11-20T20:30:06;0.90;99.90
5286;DHT22;2665;53.112;7.358;2022-11-20T20:32:33;0.90;99.90
5286;DHT22;2665;53.112;7.358;2022-11-20T20:34:58;0.90;99.90
5286;DHT22;2665;53.112;7.358;2022-11-20T20:37:24;0.90;99.90
5286;DHT22;2665;53.112;7.358;2022-11-20T20:39:50;0.90;99.90
5286;DHT22;2665;53.112;7.358;2022-11-20T20:42:16;0.90;99.90
5286;DHT22;2665;53.112;7.358;2022-11-20T20:44:41;0.90;99.90
5286;DHT22;2665;53.112;7.358;2022-11-20T20:47:29;0.90;99.90
5286;DHT22;2665;53.112;7.358;2022-11-20T20:49:55;0.90;99.90
5286;DHT22;2665;53.112;7.358;2022-11-20T20:52:21;0.90;99.90
5286;DHT22;2665;53.112;7.358;2022-11-20T20:54:46;0.90;99.90
5286;DHT22;2665;53.112;7.358;2022-11-20T20:57:12;1.00;99.90
5286;DHT22;2665;53.112;7.358;2022-11-20T20:59:38;1.00;99.90
5286;DHT22;2665;53.112;7.358;2022-11-20T21:02:04;1.00;99.90
5286;DHT22;2665;53.112;7.358;2022-11-20T21:04:29;1.00;99.90
5286;DHT22;2665;53.112;7.358;2022-11-20T21:06:55;1.00;99.90
5286;DHT22;2665;53.112;7.358;2022-11-20T21:09:20;1.00;99.90
5286;DHT22;2665;53.112;7.358;2022-11-20T21:11:46;1.00;99.90